Time;durP1;ratioP1;P1;durP2;ratioP2;P2;SDS_P1;SDS_P2;PMS_P1;PMS_P2;Temp;Humidity;BMP_temperature;BMP_pressure;BME280_temperature;BME280_humidity;BME280_pressure;Samples;Min_cycle;Max_cycle;Signal;HPM_P1;HPM_P2
2022/12/31 00:00:30;;;;;;;6.67;1.90;;;;;;;;;;6242502;22;20554;-77
2022/12/31 00:02:55;;;;;;;6.90;1.70;;;;;;;;;;6243897;23;20499;-77
2022/12/31 00:05:21;;;;;;;4.60;1.73;;;;;;;;;;6248061;22;20144;-78
2022/12/31 00:07:46;;;;;;;10.47;2.37;;;;;;;;;;6243949;23;20193;-77
2022/12/31 00:10:12;;;;;;;7.47;1.87;;;;;;;;;;6247913;22;20893;-76
2022/12/31 00:12:37;;;;;;;8.53;2.27;;;;;;;;;;6246680;23;20155;-77
2022/12/31 00:15:02;;;;;;;9.40;2.47;;;;;;;;;;6246851;23;20164;-76
2022/12/31 00:17:28;;;;;;;6.60;1.83;;;;;;;;;;6245613;22;20229;-77
2022/12/31 00:19:53;;;;;;;6.60;2.33;;;;;;;;;;6249132;22;20162;-76
2022/12/31 00:22:19;;;;;;;9.63;2.30;;;;;;;;;;6247066;23;20147;-76
2022/12/31 00:24:44;;;;;;;11.73;2.30;;;;;;;;;;6246062;23;20587;-76
2022/12/31 00:27:09;;;;;;;8.03;2.20;;;;;;;;;;6245696;23;20181;-76
2022/12/31 00:29:35;;;;;;;7.10;2.10;;;;;;;;;;6247285;23;20174;-76
2022/12/31 00:32:00;;;;;;;9.90;2.10;;;;;;;;;;6245823;23;20161;-76
2022/12/31 00:34:25;;;;;;;10.43;2.87;;;;;;;;;;6246319;23;20158;-76
2022/12/31 00:36:51;;;;;;;6.60;2.27;;;;;;;;;;6247468;23;20204;-76
2022/12/31 00:39:17;;;;;;;6.63;2.57;;;;;;;;;;6244493;23;20199;-76
2022/12/31 00:41:42;;;;;;;8.87;2.60;;;;;;;;;;6244738;23;20456;-76
2022/12/31 00:44:09;;;;;;;5.70;2.13;;;;;;;;;;6241025;23;20143;-76
2022/12/31 00:46:34;;;;;;;8.53;2.17;;;;;;;;;;6245978;22;20652;-76
2022/12/31 00:49:00;;;;;;;7.00;2.00;;;;;;;;;;6247009;22;20382;-76
2022/12/31 00:51:26;;;;;;;5.60;1.90;;;;;;;;;;6246649;23;20147;-76
2022/12/31 00:53:51;;;;;;;11.33;2.27;;;;;;;;;;6248947;22;20413;-76
2022/12/31 00:56:19;;;;;;;4.90;1.80;;;;;;;;;;6248068;22;20397;-78
2022/12/31 00:58:45;;;;;;;9.13;2.67;;;;;;;;;;6247489;22;20159;-76
2022/12/31 01:01:20;;;;;;;7.03;2.10;;;;;;;;;;6247858;22;20416;-76
2022/12/31 01:03:46;;;;;;;7.20;2.40;;;;;;;;;;6248644;22;20128;-76
2022/12/31 01:06:12;;;;;;;14.70;2.30;;;;;;;;;;6249276;22;20362;-77
2022/12/31 01:08:37;;;;;;;9.40;2.00;;;;;;;;;;6248409;23;20408;-76
2022/12/31 01:11:18;;;;;;;8.53;2.40;;;;;;;;;;6248669;23;20226;-76
2022/12/31 01:13:48;;;;;;;11.03;2.50;;;;;;;;;;6245360;23;20157;-76
2022/12/31 01:16:14;;;;;;;8.20;2.70;;;;;;;;;;6245180;22;20368;-76
2022/12/31 01:18:39;;;;;;;6.60;2.13;;;;;;;;;;6243216;23;20421;-76
2022/12/31 01:21:07;;;;;;;9.20;2.80;;;;;;;;;;6245321;23;20175;-76
2022/12/31 01:23:33;;;;;;;7.40;2.60;;;;;;;;;;6246663;22;20143;-76
2022/12/31 01:26:02;;;;;;;8.87;2.67;;;;;;;;;;6246871;23;20366;-76
2022/12/31 01:28:28;;;;;;;5.60;2.57;;;;;;;;;;6239940;23;20976;-76
2022/12/31 01:30:53;;;;;;;12.07;2.40;;;;;;;;;;6246074;22;20424;-76
2022/12/31 01:33:19;;;;;;;12.07;2.50;;;;;;;;;;6248071;22;20151;-76
2022/12/31 01:35:44;;;;;;;5.53;2.30;;;;;;;;;;6246830;22;20469;-76
2022/12/31 01:38:09;;;;;;;9.37;2.60;;;;;;;;;;6247123;23;20683;-76
2022/12/31 01:40:38;;;;;;;14.17;3.10;;;;;;;;;;6243097;23;20182;-76
2022/12/31 01:43:15;;;;;;;9.47;2.80;;;;;;;;;;6251085;23;20147;-77
2022/12/31 01:45:41;;;;;;;10.97;3.17;;;;;;;;;;6250486;23;20380;-76
2022/12/31 01:48:07;;;;;;;7.80;2.67;;;;;;;;;;6247625;23;20467;-77
2022/12/31 01:50:34;;;;;;;10.90;2.97;;;;;;;;;;6249357;22;20310;-77
2022/12/31 01:53:02;;;;;;;11.37;2.73;;;;;;;;;;6252343;22;20377;-76
2022/12/31 01:55:31;;;;;;;11.07;2.57;;;;;;;;;;6251998;22;20370;-77
2022/12/31 01:57:58;;;;;;;9.70;2.30;;;;;;;;;;6253231;22;20386;-77
2022/12/31 02:00:23;;;;;;;7.17;2.57;;;;;;;;;;6251729;23;20449;-79
2022/12/31 02:02:49;;;;;;;13.43;2.77;;;;;;;;;;6248327;23;20393;-77
2022/12/31 02:05:17;;;;;;;11.37;2.80;;;;;;;;;;6253199;22;20165;-77
2022/12/31 02:07:43;;;;;;;11.93;2.90;;;;;;;;;;6249551;23;20197;-77
2022/12/31 02:10:08;;;;;;;12.70;3.07;;;;;;;;;;6252376;22;20806;-77
2022/12/31 02:12:33;;;;;;;7.10;2.47;;;;;;;;;;6253063;22;20590;-77
2022/12/31 02:14:59;;;;;;;9.60;2.30;;;;;;;;;;6252127;23;20147;-77
2022/12/31 02:17:27;;;;;;;9.17;2.70;;;;;;;;;;6251747;23;20190;-76
2022/12/31 02:20:13;;;;;;;5.37;2.10;;;;;;;;;;6251637;23;20205;-77
2022/12/31 02:22:57;;;;;;;6.03;2.67;;;;;;;;;;6252870;22;20593;-77
2022/12/31 02:25:29;;;;;;;9.50;2.53;;;;;;;;;;6252339;23;20382;-77
2022/12/31 02:28:06;;;;;;;4.13;1.83;;;;;;;;;;6251665;23;20383;-77
2022/12/31 02:30:32;;;;;;;6.13;2.60;;;;;;;;;;6251765;23;20370;-77
2022/12/31 02:33:06;;;;;;;3.63;1.83;;;;;;;;;;6253290;22;20370;-77
2022/12/31 02:35:37;;;;;;;8.30;2.30;;;;;;;;;;6253545;23;20146;-78
2022/12/31 02:38:04;;;;;;;6.43;2.40;;;;;;;;;;6249446;23;20398;-77
2022/12/31 02:40:32;;;;;;;7.40;2.90;;;;;;;;;;6252227;23;20908;-77
2022/12/31 02:42:57;;;;;;;6.17;2.70;;;;;;;;;;6248822;22;20366;-76
2022/12/31 02:45:27;;;;;;;6.40;3.30;;;;;;;;;;6248088;23;20914;-77
2022/12/31 02:48:00;;;;;;;5.10;2.80;;;;;;;;;;6246084;23;20164;-77
2022/12/31 02:50:34;;;;;;;6.80;2.70;;;;;;;;;;6249169;22;20359;-77
2022/12/31 02:53:17;;;;;;;5.87;3.10;;;;;;;;;;6244984;22;20355;-76
2022/12/31 02:55:57;;;;;;;3.00;2.17;;;;;;;;;;6245817;23;20724;-77
2022/12/31 03:02:12;;;;;;;6.60;2.60;;;;;;;;;;6247018;22;20471;-78
2022/12/31 03:04:30;;;;;;;7.97;2.63;;;;;;;;;;6248385;23;20372;-79
2022/12/31 03:06:38;;;;;;;6.87;3.60;;;;;;;;;;6247887;23;20381;-78
2022/12/31 03:09:12;;;;;;;7.53;3.30;;;;;;;;;;6243687;22;20390;-78
2022/12/31 03:14:21;;;;;;;5.80;3.57;;;;;;;;;;6247436;23;20350;-78
2022/12/31 03:16:47;;;;;;;5.23;3.17;;;;;;;;;;6242303;23;20371;-78
2022/12/31 03:27:32;;;;;;;5.40;3.30;;;;;;;;;;6245554;23;20432;-78
2022/12/31 03:29:57;;;;;;;6.97;4.03;;;;;;;;;;6241607;23;20917;-78
2022/12/31 03:32:22;;;;;;;7.73;3.33;;;;;;;;;;6244445;23;20817;-78
2022/12/31 03:34:48;;;;;;;7.53;3.37;;;;;;;;;;6242941;23;20584;-78
2022/12/31 03:37:13;;;;;;;8.90;3.90;;;;;;;;;;6241565;23;20151;-78
2022/12/31 03:39:38;;;;;;;8.60;3.27;;;;;;;;;;6242875;22;20167;-78
2022/12/31 03:42:04;;;;;;;7.63;3.30;;;;;;;;;;6241634;23;20147;-77
2022/12/31 03:44:29;;;;;;;8.77;3.77;;;;;;;;;;6242422;23;20166;-78
2022/12/31 03:46:54;;;;;;;4.70;2.70;;;;;;;;;;6241351;23;20493;-77
2022/12/31 03:49:20;;;;;;;5.60;2.90;;;;;;;;;;6245017;22;20171;-78
2022/12/31 03:51:45;;;;;;;6.23;3.10;;;;;;;;;;6247067;23;20201;-78
2022/12/31 03:54:10;;;;;;;6.63;2.93;;;;;;;;;;6245010;23;20143;-78
2022/12/31 03:56:36;;;;;;;9.47;3.60;;;;;;;;;;6245155;23;20143;-78
2022/12/31 03:59:01;;;;;;;5.03;2.50;;;;;;;;;;6242705;23;20190;-77
2022/12/31 04:01:26;;;;;;;5.63;2.63;;;;;;;;;;6244357;23;20136;-78
2022/12/31 04:03:51;;;;;;;6.57;2.70;;;;;;;;;;6242612;22;20158;-78
2022/12/31 04:06:17;;;;;;;5.70;2.30;;;;;;;;;;6246094;23;20534;-78
2022/12/31 04:08:42;;;;;;;7.57;3.03;;;;;;;;;;6243870;23;20171;-78
2022/12/31 04:11:07;;;;;;;3.57;2.30;;;;;;;;;;6242229;23;20151;-78
2022/12/31 04:13:33;;;;;;;4.80;2.23;;;;;;;;;;6242636;23;20145;-79
2022/12/31 04:15:58;;;;;;;4.67;2.57;;;;;;;;;;6239807;23;20638;-79
2022/12/31 04:18:23;;;;;;;4.77;2.20;;;;;;;;;;6238687;23;20163;-79
2022/12/31 04:20:49;;;;;;;6.33;2.10;;;;;;;;;;6237192;23;20450;-78
2022/12/31 04:23:14;;;;;;;4.03;1.53;;;;;;;;;;6239301;22;20150;-78
2022/12/31 04:25:39;;;;;;;5.63;2.07;;;;;;;;;;6242185;23;20589;-78
2022/12/31 04:28:04;;;;;;;3.97;1.80;;;;;;;;;;6243466;23;20192;-78
2022/12/31 04:30:30;;;;;;;4.07;1.70;;;;;;;;;;6242707;23;20150;-77
2022/12/31 04:32:55;;;;;;;5.80;1.70;;;;;;;;;;6241866;23;20174;-79
2022/12/31 04:35:20;;;;;;;2.93;1.63;;;;;;;;;;6240173;23;20151;-77
2022/12/31 04:37:46;;;;;;;4.23;1.83;;;;;;;;;;6242375;23;20223;-78
2022/12/31 04:40:11;;;;;;;3.50;1.80;;;;;;;;;;6242989;23;20273;-77
2022/12/31 04:42:36;;;;;;;4.07;1.50;;;;;;;;;;6245985;22;20135;-78
2022/12/31 04:45:02;;;;;;;4.00;1.37;;;;;;;;;;6246044;22;20553;-77
2022/12/31 04:47:28;;;;;;;5.73;1.00;;;;;;;;;;6244027;23;20167;-77
2022/12/31 04:49:53;;;;;;;5.43;1.33;;;;;;;;;;6246648;23;20366;-77
2022/12/31 04:52:18;;;;;;;8.00;1.60;;;;;;;;;;6245602;22;20147;-78
2022/12/31 04:54:44;;;;;;;5.07;1.10;;;;;;;;;;6244815;22;20147;-78
2022/12/31 04:57:09;;;;;;;2.53;1.50;;;;;;;;;;6246711;23;20152;-78
2022/12/31 04:59:34;;;;;;;4.80;1.20;;;;;;;;;;6242719;23;20175;-77
2022/12/31 05:01:59;;;;;;;3.63;1.30;;;;;;;;;;6241158;23;20594;-77
2022/12/31 05:04:25;;;;;;;3.60;1.23;;;;;;;;;;6242241;23;20165;-77
2022/12/31 05:06:50;;;;;;;1.90;1.10;;;;;;;;;;6241757;23;20143;-77
2022/12/31 05:09:15;;;;;;;3.03;1.30;;;;;;;;;;6239822;23;20237;-78
2022/12/31 05:11:41;;;;;;;6.70;1.03;;;;;;;;;;6242311;22;20144;-77
2022/12/31 05:14:06;;;;;;;3.60;1.13;;;;;;;;;;6238699;23;20179;-77
2022/12/31 05:16:31;;;;;;;2.50;1.10;;;;;;;;;;6240466;23;20146;-77
2022/12/31 05:18:56;;;;;;;3.80;1.47;;;;;;;;;;6240243;23;20645;-77
2022/12/31 05:21:22;;;;;;;4.37;1.70;;;;;;;;;;6241249;23;20143;-77
2022/12/31 05:23:47;;;;;;;7.93;4.00;;;;;;;;;;6242059;23;20143;-77
2022/12/31 05:26:13;;;;;;;8.03;3.83;;;;;;;;;;6241385;22;20143;-77
2022/12/31 05:28:38;;;;;;;5.67;3.80;;;;;;;;;;6241314;23;20170;-77
2022/12/31 05:31:03;;;;;;;5.47;2.77;;;;;;;;;;6240662;23;20237;-77
2022/12/31 05:33:29;;;;;;;3.37;2.27;;;;;;;;;;6241754;23;20495;-77
2022/12/31 05:35:57;;;;;;;5.73;2.33;;;;;;;;;;6238899;23;20507;-77
2022/12/31 05:38:22;;;;;;;2.90;1.60;;;;;;;;;;6240430;22;20168;-77
2022/12/31 05:40:47;;;;;;;7.23;5.93;;;;;;;;;;6243311;23;20884;-78
2022/12/31 05:43:13;;;;;;;5.00;3.27;;;;;;;;;;6247349;23;20519;-77
2022/12/31 05:45:38;;;;;;;4.57;2.30;;;;;;;;;;6243910;23;20139;-77
2022/12/31 05:48:03;;;;;;;3.43;1.70;;;;;;;;;;6244953;23;20167;-77
2022/12/31 05:50:29;;;;;;;3.93;1.77;;;;;;;;;;6241649;23;20594;-77
2022/12/31 05:52:54;;;;;;;3.50;1.50;;;;;;;;;;6242830;23;20488;-78
2022/12/31 05:55:19;;;;;;;3.27;1.70;;;;;;;;;;6241809;22;20147;-78
2022/12/31 05:57:45;;;;;;;4.97;1.90;;;;;;;;;;6242039;22;20197;-78
2022/12/31 06:00:10;;;;;;;3.73;2.13;;;;;;;;;;6241763;23;20171;-78
2022/12/31 06:02:36;;;;;;;6.50;2.20;;;;;;;;;;6240614;23;20481;-78
2022/12/31 06:05:01;;;;;;;5.57;2.30;;;;;;;;;;6241977;22;20147;-78
2022/12/31 06:07:26;;;;;;;5.20;2.67;;;;;;;;;;6240650;23;20163;-78
2022/12/31 06:09:51;;;;;;;4.80;2.30;;;;;;;;;;6240696;23;20210;-78
2022/12/31 06:12:17;;;;;;;9.03;2.97;;;;;;;;;;6239461;23;20147;-78
2022/12/31 06:14:42;;;;;;;3.77;2.27;;;;;;;;;;6241305;22;20208;-78
2022/12/31 06:17:08;;;;;;;4.50;3.60;;;;;;;;;;6232344;22;20195;-71
2022/12/31 06:19:33;;;;;;;7.40;3.50;;;;;;;;;;6237123;23;20167;-71
2022/12/31 06:21:58;;;;;;;3.50;1.80;;;;;;;;;;6238348;23;20150;-71
2022/12/31 06:24:24;;;;;;;4.07;1.40;;;;;;;;;;6211760;23;20189;-70
2022/12/31 06:26:49;;;;;;;4.00;1.60;;;;;;;;;;6240769;22;20514;-71
2022/12/31 06:29:14;;;;;;;4.27;1.60;;;;;;;;;;6241166;23;20226;-71
2022/12/31 06:31:39;;;;;;;4.27;1.80;;;;;;;;;;6240004;22;20582;-70
2022/12/31 06:34:05;;;;;;;4.50;1.93;;;;;;;;;;6236952;23;20649;-71
2022/12/31 06:36:30;;;;;;;3.73;1.53;;;;;;;;;;6236372;22;20171;-71
2022/12/31 06:38:55;;;;;;;3.23;1.90;;;;;;;;;;6239271;22;20154;-69
2022/12/31 06:41:21;;;;;;;2.97;1.80;;;;;;;;;;6239399;23;20632;-70
2022/12/31 06:43:46;;;;;;;2.70;1.80;;;;;;;;;;6236225;23;20487;-70
2022/12/31 06:46:13;;;;;;;2.60;2.13;;;;;;;;;;6237596;22;20209;-69
2022/12/31 06:48:40;;;;;;;3.23;1.70;;;;;;;;;;6240609;22;20144;-69
2022/12/31 06:51:16;;;;;;;5.90;1.77;;;;;;;;;;6239246;23;20400;-69
2022/12/31 06:53:41;;;;;;;4.70;1.33;;;;;;;;;;6239188;23;20394;-69
2022/12/31 06:56:08;;;;;;;4.90;1.40;;;;;;;;;;6238011;22;21176;-70
2022/12/31 06:58:33;;;;;;;2.93;1.20;;;;;;;;;;6238088;23;20598;-72
2022/12/31 07:01:25;;;;;;;3.30;0.80;;;;;;;;;;6238170;22;20406;-71
2022/12/31 07:04:01;;;;;;;2.90;1.00;;;;;;;;;;6231578;23;20158;-72
2022/12/31 07:06:32;;;;;;;3.60;0.90;;;;;;;;;;6239238;22;20413;-71
2022/12/31 07:09:07;;;;;;;4.67;1.23;;;;;;;;;;6238100;22;20424;-71
2022/12/31 07:11:51;;;;;;;1.30;0.70;;;;;;;;;;6240577;22;20373;-72
2022/12/31 07:14:24;;;;;;;2.50;0.90;;;;;;;;;;6240217;23;20384;-72
2022/12/31 07:17:07;;;;;;;2.00;0.70;;;;;;;;;;6237319;22;20505;-71
2022/12/31 07:19:39;;;;;;;2.20;0.80;;;;;;;;;;6238703;23;20505;-71
2022/12/31 07:22:04;;;;;;;2.17;0.70;;;;;;;;;;6236630;23;20362;-71
2022/12/31 07:24:29;;;;;;;2.70;0.80;;;;;;;;;;6238549;22;20402;-71
2022/12/31 07:27:16;;;;;;;1.90;0.80;;;;;;;;;;6236373;22;20163;-70
2022/12/31 07:29:41;;;;;;;1.47;0.70;;;;;;;;;;6229856;22;20194;-70
2022/12/31 07:32:06;;;;;;;3.37;1.10;;;;;;;;;;6235033;23;20370;-71
2022/12/31 07:34:45;;;;;;;2.07;0.90;;;;;;;;;;6235556;23;20159;-71
2022/12/31 07:37:25;;;;;;;2.00;1.00;;;;;;;;;;6235935;22;20182;-71
2022/12/31 07:40:02;;;;;;;3.80;0.77;;;;;;;;;;6234513;23;20413;-71
2022/12/31 07:42:31;;;;;;;2.87;0.80;;;;;;;;;;6236593;23;20953;-71
2022/12/31 07:45:02;;;;;;;3.97;0.90;;;;;;;;;;6235822;22;20370;-71
2022/12/31 07:47:28;;;;;;;2.60;0.80;;;;;;;;;;6237157;22;20406;-71
2022/12/31 07:49:54;;;;;;;3.83;1.00;;;;;;;;;;6237138;22;20847;-71
2022/12/31 07:52:19;;;;;;;1.83;0.77;;;;;;;;;;6236019;22;20143;-71
2022/12/31 07:54:45;;;;;;;2.53;1.20;;;;;;;;;;6235133;23;20374;-71
2022/12/31 07:57:11;;;;;;;2.90;0.80;;;;;;;;;;6236020;22;20167;-71
2022/12/31 07:59:39;;;;;;;1.83;0.80;;;;;;;;;;6234894;22;20178;-71
2022/12/31 08:02:19;;;;;;;1.77;1.10;;;;;;;;;;6234742;23;20412;-71
2022/12/31 08:04:53;;;;;;;1.83;1.30;;;;;;;;;;6237864;23;20362;-72
2022/12/31 08:07:45;;;;;;;2.90;1.80;;;;;;;;;;6234532;22;20417;-70
2022/12/31 08:10:26;;;;;;;2.80;2.00;;;;;;;;;;6237369;22;20798;-71
2022/12/31 08:12:57;;;;;;;2.30;1.70;;;;;;;;;;6232850;23;25066;-71
2022/12/31 08:15:22;;;;;;;2.30;2.10;;;;;;;;;;6240020;22;20350;-71
2022/12/31 08:17:48;;;;;;;2.43;2.23;;;;;;;;;;6234608;22;20410;-72
2022/12/31 08:20:14;;;;;;;3.60;1.90;;;;;;;;;;6238908;22;20250;-72
2022/12/31 08:23:00;;;;;;;2.10;1.90;;;;;;;;;;6238797;22;20578;-72
2022/12/31 08:25:26;;;;;;;2.10;1.43;;;;;;;;;;6236820;23;20389;-71
2022/12/31 08:27:54;;;;;;;1.33;1.23;;;;;;;;;;6235762;22;20853;-71
2022/12/31 08:30:20;;;;;;;2.27;1.53;;;;;;;;;;6239067;23;20148;-72
2022/12/31 08:32:45;;;;;;;1.53;1.33;;;;;;;;;;6238925;22;20373;-70
2022/12/31 08:35:17;;;;;;;1.20;1.00;;;;;;;;;;6238288;23;20366;-71
2022/12/31 08:37:46;;;;;;;1.73;1.30;;;;;;;;;;6236638;22;20175;-70
2022/12/31 08:40:11;;;;;;;3.30;1.97;;;;;;;;;;6239518;22;20441;-71
2022/12/31 08:42:40;;;;;;;3.37;2.83;;;;;;;;;;6240346;23;20721;-71
2022/12/31 08:45:13;;;;;;;4.53;3.23;;;;;;;;;;6239609;23;20167;-71
2022/12/31 08:47:53;;;;;;;3.73;2.90;;;;;;;;;;6233615;22;20405;-73
2022/12/31 08:50:19;;;;;;;3.30;2.73;;;;;;;;;;6237778;23;20713;-72
2022/12/31 08:52:44;;;;;;;3.10;2.10;;;;;;;;;;6240073;22;20362;-72
2022/12/31 08:55:17;;;;;;;2.07;1.57;;;;;;;;;;6239318;22;20154;-72
2022/12/31 08:57:52;;;;;;;3.33;1.10;;;;;;;;;;6234041;22;20632;-71
2022/12/31 09:00:18;;;;;;;2.77;1.30;;;;;;;;;;6226648;23;20766;-72
2022/12/31 09:02:43;;;;;;;4.40;1.10;;;;;;;;;;6230291;22;20672;-71
2022/12/31 09:05:15;;;;;;;1.13;1.00;;;;;;;;;;6229168;23;20806;-74
2022/12/31 09:07:50;;;;;;;1.50;1.40;;;;;;;;;;6228407;22;20557;-72
2022/12/31 09:10:19;;;;;;;1.47;1.27;;;;;;;;;;6231363;22;20346;-72
2022/12/31 09:12:44;;;;;;;2.03;1.70;;;;;;;;;;6231947;22;20362;-71
2022/12/31 09:15:14;;;;;;;2.53;2.33;;;;;;;;;;6230418;23;21062;-71
2022/12/31 09:17:43;;;;;;;4.03;2.37;;;;;;;;;;6227462;22;20222;-72
2022/12/31 09:20:27;;;;;;;2.70;2.50;;;;;;;;;;6228500;23;20425;-72
2022/12/31 09:22:53;;;;;;;2.80;1.93;;;;;;;;;;6231825;23;20366;-72
2022/12/31 09:25:20;;;;;;;2.13;1.97;;;;;;;;;;6235861;22;20374;-71
2022/12/31 09:28:05;;;;;;;2.70;1.43;;;;;;;;;;6236345;22;20402;-70
2022/12/31 09:30:51;;;;;;;1.97;1.70;;;;;;;;;;6224705;23;20421;-70
2022/12/31 09:33:37;;;;;;;2.07;1.80;;;;;;;;;;6241944;22;20414;-70
2022/12/31 09:36:05;;;;;;;2.10;1.90;;;;;;;;;;6240208;22;20832;-70
2022/12/31 09:38:36;;;;;;;2.10;1.70;;;;;;;;;;6239986;22;20377;-70
2022/12/31 09:41:13;;;;;;;3.20;1.77;;;;;;;;;;6237278;23;20765;-70
2022/12/31 09:43:41;;;;;;;1.67;1.43;;;;;;;;;;6233526;22;20419;-70
2022/12/31 09:46:25;;;;;;;1.40;1.30;;;;;;;;;;6232275;22;20944;-71
2022/12/31 09:48:53;;;;;;;1.40;1.30;;;;;;;;;;6239946;23;20389;-70
2022/12/31 09:51:21;;;;;;;2.03;1.60;;;;;;;;;;6240569;23;20370;-71
2022/12/31 09:53:54;;;;;;;1.50;1.40;;;;;;;;;;6237541;23;20816;-70
2022/12/31 09:56:24;;;;;;;1.37;1.23;;;;;;;;;;6238910;22;20833;-71
2022/12/31 09:59:00;;;;;;;1.30;1.20;;;;;;;;;;6239960;22;20363;-70
2022/12/31 10:01:30;;;;;;;1.80;1.27;;;;;;;;;;6241162;22;20469;-71
2022/12/31 10:04:03;;;;;;;1.80;1.20;;;;;;;;;;6239355;23;20374;-70
2022/12/31 10:06:47;;;;;;;1.23;1.13;;;;;;;;;;6238939;22;20398;-70
2022/12/31 10:09:20;;;;;;;2.87;1.57;;;;;;;;;;6240802;23;20365;-70
2022/12/31 10:11:54;;;;;;;3.13;1.30;;;;;;;;;;6239970;22;20369;-71
2022/12/31 10:14:22;;;;;;;2.70;1.10;;;;;;;;;;6240104;23;20349;-71
2022/12/31 10:17:07;;;;;;;2.13;1.00;;;;;;;;;;6239149;22;20409;-70
2022/12/31 10:19:47;;;;;;;1.20;0.90;;;;;;;;;;6239163;23;20951;-71
2022/12/31 10:22:12;;;;;;;1.93;1.10;;;;;;;;;;6239280;23;20377;-70
2022/12/31 10:24:41;;;;;;;1.63;0.90;;;;;;;;;;6236007;23;20374;-70
2022/12/31 10:27:06;;;;;;;1.70;0.87;;;;;;;;;;6236391;22;20179;-71
2022/12/31 10:29:58;;;;;;;1.13;0.90;;;;;;;;;;6238970;23;20439;-69
2022/12/31 10:32:40;;;;;;;1.23;1.00;;;;;;;;;;6239872;22;20136;-68
2022/12/31 10:35:25;;;;;;;1.87;0.80;;;;;;;;;;6239978;22;20343;-69
2022/12/31 10:38:04;;;;;;;2.40;0.90;;;;;;;;;;6237906;22;20757;-70
2022/12/31 10:40:49;;;;;;;2.50;1.00;;;;;;;;;;6239871;23;20432;-68
2022/12/31 10:43:32;;;;;;;1.93;0.90;;;;;;;;;;6238549;23;20867;-69
2022/12/31 10:46:06;;;;;;;2.80;1.00;;;;;;;;;;6242027;22;20363;-70
2022/12/31 10:48:44;;;;;;;2.83;1.13;;;;;;;;;;6235745;23;20852;-70
2022/12/31 10:51:09;;;;;;;3.17;1.10;;;;;;;;;;6239953;23;20370;-69
2022/12/31 10:53:53;;;;;;;2.37;1.10;;;;;;;;;;6241085;23;20466;-70
2022/12/31 10:56:27;;;;;;;5.57;1.20;;;;;;;;;;6240749;22;20245;-70
2022/12/31 10:58:59;;;;;;;5.23;1.20;;;;;;;;;;6241230;23;20472;-70
2022/12/31 11:01:37;;;;;;;5.13;1.03;;;;;;;;;;6240315;23;21293;-70
2022/12/31 11:04:08;;;;;;;3.87;1.37;;;;;;;;;;6236280;23;20829;-70
2022/12/31 11:06:45;;;;;;;6.60;1.40;;;;;;;;;;6239214;22;20409;-70
2022/12/31 11:09:17;;;;;;;10.03;1.43;;;;;;;;;;6238208;23;20381;-70
2022/12/31 11:12:04;;;;;;;9.50;1.33;;;;;;;;;;6240253;23;20362;-70
2022/12/31 11:14:48;;;;;;;5.33;1.50;;;;;;;;;;6241326;22;20355;-70
2022/12/31 11:17:39;;;;;;;4.67;1.30;;;;;;;;;;6238021;22;20792;-70
2022/12/31 11:20:11;;;;;;;4.17;1.30;;;;;;;;;;6236847;23;20509;-70
2022/12/31 11:22:47;;;;;;;7.20;1.97;;;;;;;;;;6240676;23;20362;-69
2022/12/31 11:25:31;;;;;;;5.73;1.33;;;;;;;;;;6240030;22;20438;-70
2022/12/31 11:28:02;;;;;;;6.23;1.37;;;;;;;;;;6240624;22;20718;-70
2022/12/31 11:30:54;;;;;;;3.57;1.80;;;;;;;;;;6239391;23;20389;-70
2022/12/31 11:33:38;;;;;;;5.00;1.20;;;;;;;;;;6238791;22;20389;-70
2022/12/31 11:36:30;;;;;;;5.40;1.80;;;;;;;;;;6239881;22;20369;-70
2022/12/31 11:39:20;;;;;;;5.90;1.50;;;;;;;;;;6235416;23;20381;-70
2022/12/31 11:41:48;;;;;;;4.40;1.30;;;;;;;;;;6247503;22;20987;-70
2022/12/31 11:44:17;;;;;;;5.80;1.67;;;;;;;;;;6240387;22;20358;-71
2022/12/31 11:47:06;;;;;;;6.10;1.57;;;;;;;;;;6239694;22;20394;-70
2022/12/31 11:49:31;;;;;;;11.60;2.20;;;;;;;;;;6194766;22;20366;-70
2022/12/31 11:51:59;;;;;;;5.90;1.60;;;;;;;;;;6241042;23;20762;-71
2022/12/31 11:54:34;;;;;;;10.97;1.70;;;;;;;;;;6240804;23;20143;-71
2022/12/31 11:57:04;;;;;;;6.97;1.43;;;;;;;;;;6239036;22;20886;-70
2022/12/31 11:59:29;;;;;;;6.90;1.63;;;;;;;;;;6238589;23;20425;-71
2022/12/31 12:02:03;;;;;;;9.27;2.20;;;;;;;;;;6238010;23;20370;-71
2022/12/31 12:04:29;;;;;;;8.13;1.60;;;;;;;;;;6235450;23;20194;-71
2022/12/31 12:06:54;;;;;;;6.77;1.60;;;;;;;;;;6237632;22;20452;-70
2022/12/31 12:09:30;;;;;;;5.90;1.70;;;;;;;;;;6237766;23;20385;-70
2022/12/31 12:11:59;;;;;;;7.60;2.10;;;;;;;;;;6241004;22;20135;-70
2022/12/31 12:14:32;;;;;;;5.03;1.47;;;;;;;;;;6239757;22;20825;-71
2022/12/31 12:16:58;;;;;;;8.20;2.03;;;;;;;;;;6233088;22;20465;-69
2022/12/31 12:19:25;;;;;;;7.73;1.90;;;;;;;;;;6238683;22;20370;-68
2022/12/31 12:21:51;;;;;;;6.43;2.17;;;;;;;;;;6237048;22;20374;-68
2022/12/31 12:24:16;;;;;;;6.83;1.77;;;;;;;;;;6241206;22;20833;-70
2022/12/31 12:26:42;;;;;;;7.10;1.73;;;;;;;;;;6237364;22;20171;-70
2022/12/31 12:29:11;;;;;;;5.30;2.20;;;;;;;;;;6231949;23;20155;-72
2022/12/31 12:31:37;;;;;;;5.03;1.67;;;;;;;;;;6238451;22;20144;-71
2022/12/31 12:34:03;;;;;;;5.70;2.37;;;;;;;;;;6237452;22;20364;-71
2022/12/31 12:36:28;;;;;;;7.23;2.23;;;;;;;;;;6239424;22;20205;-72
2022/12/31 12:39:04;;;;;;;7.63;1.33;;;;;;;;;;6240057;23;20142;-72
2022/12/31 12:41:29;;;;;;;5.87;2.17;;;;;;;;;;6236794;23;20232;-71
2022/12/31 12:44:13;;;;;;;7.43;2.23;;;;;;;;;;6234395;23;20378;-70
2022/12/31 12:46:42;;;;;;;8.10;2.20;;;;;;;;;;6235426;22;20170;-68
2022/12/31 12:49:17;;;;;;;7.50;1.90;;;;;;;;;;6234235;22;20359;-72
2022/12/31 12:51:55;;;;;;;3.73;1.57;;;;;;;;;;6236312;22;20801;-71
2022/12/31 12:54:20;;;;;;;4.43;1.40;;;;;;;;;;6236254;22;20444;-71
2022/12/31 12:56:46;;;;;;;3.53;1.30;;;;;;;;;;6235436;22;20390;-72
2022/12/31 12:59:11;;;;;;;6.83;2.00;;;;;;;;;;6236092;22;20144;-71
2022/12/31 13:01:39;;;;;;;5.50;1.50;;;;;;;;;;6237047;23;20143;-71
2022/12/31 13:04:04;;;;;;;6.13;1.87;;;;;;;;;;6235917;23;20265;-71
2022/12/31 13:06:49;;;;;;;7.73;1.40;;;;;;;;;;6238507;22;20793;-71
2022/12/31 13:09:29;;;;;;;6.17;1.53;;;;;;;;;;6237975;22;20132;-71
2022/12/31 13:12:11;;;;;;;4.27;1.60;;;;;;;;;;6234256;22;20381;-71
2022/12/31 13:14:49;;;;;;;5.80;2.00;;;;;;;;;;6235885;22;20347;-72
2022/12/31 13:17:28;;;;;;;5.23;2.00;;;;;;;;;;6233459;22;20413;-70
2022/12/31 13:19:53;;;;;;;6.20;1.90;;;;;;;;;;6236146;22;20468;-70
2022/12/31 13:22:18;;;;;;;6.03;3.17;;;;;;;;;;6231650;23;20748;-70
2022/12/31 13:24:43;;;;;;;8.10;2.40;;;;;;;;;;6236608;23;20143;-71
2022/12/31 13:27:26;;;;;;;5.97;2.03;;;;;;;;;;6232203;22;20201;-77
2022/12/31 13:29:52;;;;;;;7.17;2.33;;;;;;;;;;6212098;23;20146;-77
2022/12/31 13:32:23;;;;;;;6.70;1.90;;;;;;;;;;6213692;23;20423;-77
2022/12/31 13:34:50;;;;;;;6.00;1.57;;;;;;;;;;6212701;23;20385;-77
2022/12/31 13:37:36;;;;;;;5.20;1.80;;;;;;;;;;6243379;22;20394;-77
2022/12/31 13:40:04;;;;;;;4.87;1.77;;;;;;;;;;6244471;23;20424;-77
2022/12/31 13:42:42;;;;;;;5.20;1.70;;;;;;;;;;6240043;22;20369;-78
2022/12/31 13:45:15;;;;;;;9.47;2.63;;;;;;;;;;6243275;22;20364;-78
2022/12/31 13:47:49;;;;;;;6.53;2.03;;;;;;;;;;6233792;22;20846;-76
2022/12/31 13:50:27;;;;;;;14.27;2.40;;;;;;;;;;6243938;22;20366;-78
2022/12/31 13:52:58;;;;;;;6.73;1.90;;;;;;;;;;6242932;23;20696;-78
2022/12/31 13:55:24;;;;;;;8.43;2.43;;;;;;;;;;6240307;22;20370;-76
2022/12/31 13:57:55;;;;;;;7.13;2.43;;;;;;;;;;6239925;22;20394;-77
2022/12/31 14:00:20;;;;;;;8.97;3.00;;;;;;;;;;6243089;23;20601;-76
2022/12/31 14:02:58;;;;;;;7.83;2.40;;;;;;;;;;6239211;23;20381;-78
2022/12/31 14:05:41;;;;;;;11.27;2.30;;;;;;;;;;6243101;23;20146;-76
2022/12/31 14:08:07;;;;;;;6.37;1.87;;;;;;;;;;6240646;23;20374;-76
2022/12/31 14:10:56;;;;;;;8.63;2.20;;;;;;;;;;6243892;22;20366;-76
2022/12/31 14:13:51;;;;;;;6.87;1.87;;;;;;;;;;6245393;22;20191;-76
2022/12/31 14:16:42;;;;;;;6.57;2.00;;;;;;;;;;6224378;22;20939;-76
2022/12/31 14:19:14;;;;;;;6.40;1.70;;;;;;;;;;6234304;22;20354;-76
2022/12/31 14:21:42;;;;;;;9.53;3.23;;;;;;;;;;6240651;23;20396;-78
2022/12/31 14:24:16;;;;;;;10.60;1.80;;;;;;;;;;6243208;23;20369;-79
2022/12/31 14:26:51;;;;;;;10.30;2.17;;;;;;;;;;6245407;22;20448;-77
2022/12/31 14:29:20;;;;;;;8.63;2.90;;;;;;;;;;6244142;22;20353;-78
2022/12/31 14:31:48;;;;;;;7.53;2.00;;;;;;;;;;6247038;23;20370;-77
2022/12/31 14:34:38;;;;;;;12.50;2.50;;;;;;;;;;6257341;22;20374;-79
2022/12/31 14:37:10;;;;;;;6.30;1.93;;;;;;;;;;6260246;22;20382;-81
2022/12/31 14:40:02;;;;;;;6.13;2.20;;;;;;;;;;6255943;23;20441;-79
2022/12/31 14:42:46;;;;;;;5.13;2.40;;;;;;;;;;6242971;23;20378;-78
2022/12/31 14:45:19;;;;;;;7.03;1.70;;;;;;;;;;6252555;23;20362;-80
2022/12/31 14:47:54;;;;;;;3.33;1.33;;;;;;;;;;6252909;22;20392;-77
2022/12/31 14:50:23;;;;;;;3.87;1.63;;;;;;;;;;6254003;23;20361;-79
2022/12/31 14:52:51;;;;;;;8.47;1.80;;;;;;;;;;6246774;22;20390;-79
2022/12/31 14:55:16;;;;;;;7.50;1.87;;;;;;;;;;6245270;22;20438;-79
2022/12/31 14:57:44;;;;;;;4.90;1.40;;;;;;;;;;6235310;22;20425;-78
2022/12/31 15:00:31;;;;;;;3.73;1.77;;;;;;;;;;6239692;22;20178;-79
2022/12/31 15:03:21;;;;;;;7.67;2.93;;;;;;;;;;6240614;23;20379;-78
2022/12/31 15:05:50;;;;;;;7.03;2.00;;;;;;;;;;6241092;22;20354;-78
2022/12/31 15:08:18;;;;;;;5.20;1.50;;;;;;;;;;6240411;23;20861;-77
2022/12/31 15:10:43;;;;;;;7.33;2.27;;;;;;;;;;6240460;23;20428;-78
2022/12/31 15:13:18;;;;;;;5.03;1.40;;;;;;;;;;6241423;22;20362;-77
2022/12/31 15:16:01;;;;;;;3.90;1.60;;;;;;;;;;6240369;22;20150;-77